OIKQ

Qeshm International Airport

Airport
ICAO code
OIKQ
IATA Code
GSM
Summary
ICAO Region
MID
ICAO Territory
Location

Direstan, Hormuzgan Province

Serving
Qeshm Island
Elevation
45 ft
Coordinates
26° 45' 22" N , 55° 53' 43" E
KCC
Metar
Observation
OIKQ 070400Z 00000KT 3000 BR NSC 20/19 Q1016 NOSIG
Station
Gheshm Island / Dayrestan
Date/Time
2022-12-07 04:00:00
Wind direction
Wind speed
00 kts
Lowest cloud amount
nil significant cloud
Temperature
20°C
Dew point
19°C
Humidity
93%
QNH
1016 hPa
Weather condition
n/a

Also known as Dayrestan Airport, this airport serves the island of Qeshm in the straights of Hormuz, off the south coast of Iran.

Climatology

Warm Desert climate (Köppen climate classification BWh).

Runways

Designator Length Width Surface Rops
5/23 4226 45 ASP No/No

Airport map

Aerial View

SKYbrary Partners:

Safety knowledge contributed by: